• Join FlightAware (Why Join?)
  • Login
  • US Flag 
11:06PM EST


 

Airport Tracker/Info


-or-


 

Live Flight TrackerFlight Track Log ✈ UAL623 ✈ 14-May-2013 ✈ KMCO - KCLE

Flight Track Log - Related Links

Times and Time Zones

All times are in EDT time to prevent confusion due to time zone crossing. See the UAL623 flight status page for this flight to view local times or setup timezone preferences in your user account.

Time Position Orientation Groundspeed Altitude Reporting Facility
EDT Latitude Longitude Course Direction KTS MPH feet Rate Location/Type
11:26AM 28.4500 -81.3167 350° North 145 167 800  Level Orlando TRACON
11:26AM 28.4667 -81.3167 360° North 153 176 2,300 1,620 Climbing Orlando TRACON
11:27AM 28.5333 -81.3167 360° North 200 230 3,800 1,860 Climbing Orlando TRACON
11:28AM 28.6000 -81.3167 360° North 287 330 6,300 2,820 Climbing Orlando TRACON
11:29AM 28.8395 -81.3512 350° North  Level FlightAware Approximate
11:29AM 28.6667 -81.3333 348° North 274 315 9,300  Level Orlando TRACON
11:30AM 28.9466 -81.3667 North  Level FlightAware Approximate
11:31AM 29.0539 -81.3774 350° North  Level FlightAware Approximate
11:32AM 28.8281 -81.4208 335° Northwest 307 353 14,000  Level Jacksonville Center
11:33AM 28.9203 -81.4503 344° North 328 377 16,400 1,980 Climbing Jacksonville Center
11:34AM 29.0144 -81.4844 342° North 345 397 18,000 1,800 Climbing Jacksonville Center
11:35AM 29.1150 -81.5164 344° North 351 404 20,000 1,920 Climbing Jacksonville Center
11:36AM 29.2200 -81.5553 342° North 363 418 21,900 1,740 Climbing Jacksonville Center
11:37AM 29.3289 -81.5897 345° North 374 430 23,500 1,680 Climbing Jacksonville Center
11:38AM 29.4356 -81.6192 346° North 384 442 25,300 1,560 Climbing Jacksonville Center
11:39AM 29.5483 -81.6319 354° North 391 450 26,700 1,320 Climbing Jacksonville Center
11:40AM 29.6633 -81.6472 353° North 403 464 28,000 1,260 Climbing Jacksonville Center
11:41AM 29.7825 -81.6603 355° North 416 479 29,300 1,080 Climbing Jacksonville Center
11:42AM 29.8994 -81.6756 354° North 421 484 30,200 1,080 Climbing Jacksonville Center
11:43AM 30.0228 -81.6908 354° North 428 493 31,500 1,260 Climbing Jacksonville Center
11:44AM 30.1419 -81.7036 355° North 433 498 32,800 1,140 Climbing Jacksonville Center
11:45AM 30.2611 -81.7189 354° North 433 498 33,900 1,080 Climbing Jacksonville Center
11:46AM 30.3803 -81.7319 355° North 423 487 35,000 540 Climbing Jacksonville Center
11:47AM 30.4972 -81.7497 353° North 418 481 35,000  Level Jacksonville Center
11:48AM 30.6144 -81.7628 355° North 423 487 35,000  Level Jacksonville Center
11:49AM 30.7336 -81.7783 354° North 423 487 35,000  Level Jacksonville Center
11:50AM 30.8483 -81.7892 355° North 423 487 35,000  Level Jacksonville Center
11:51AM 30.9572 -81.8097 351° North 423 487 35,000  Level Jacksonville Center
11:52AM 31.0722 -81.8253 353° North 423 487 35,000  Level Jacksonville Center
11:53AM 31.1872 -81.8411 353° North 423 487 35,000 -60 Level Jacksonville Center
11:54AM 31.3019 -81.8544 354° North 423 487 34,900  Descending Jacksonville Center
11:55AM 31.4275 -81.8675 355° North 412 474 35,000  Climbing Jacksonville Center
11:56AM 31.5319 -81.8811 354° North 412 474 35,000  Level Jacksonville Center
11:58AM 31.8203 -81.9172 354° North 420 483 35,000  Level Atlanta Center
11:59AM 31.9311 -81.9342 353° North 415 478 35,000  Level Atlanta Center
12:00PM 32.0483 -81.9486 354° North 415 478 35,000  Level Atlanta Center
12:01PM 32.1611 -81.9608 355° North 409 471 35,000  Level Atlanta Center
12:02PM 32.2867 -81.9750 355° North 409 471 35,000  Level Atlanta Center
12:03PM 32.3994 -81.9897 354° North 409 471 35,000  Level Atlanta Center
12:04PM 32.5125 -82.0067 353° North 409 471 35,000  Level Atlanta Center
12:05PM 32.6275 -82.0214 354° North 409 471 35,000  Level Atlanta Center
12:06PM 32.7406 -82.0361 354° North 409 471 35,000  Level Atlanta Center
12:07PM 32.8536 -82.0508 354° North 409 471 35,000  Level Atlanta Center
12:08PM 32.9686 -82.0656 354° North 409 471 35,000  Level Atlanta Center
12:09PM 33.0814 -82.0778 355° North 409 471 35,000  Level Atlanta Center
12:10PM 33.1986 -82.0975 352° North 409 471 35,000  Level Atlanta Center
12:11PM 33.3117 -82.1100 355° North 409 471 35,000  Level Atlanta Center
12:12PM 33.4244 -82.1247 354° North 404 465 35,000  Level Atlanta Center
12:13PM 33.5353 -82.1397 354° North 409 471 35,000  Level Atlanta Center
12:14PM 33.6378 -82.1500 355° North 409 471 35,000  Level Atlanta Center
12:15PM 33.7528 -82.1600 356° North 409 471 35,000  Level Atlanta Center
12:16PM 33.8697 -82.1600 360° North 409 471 35,000  Level Atlanta Center
12:17PM 33.9822 -82.1625 359° North 409 471 35,000  Level Atlanta Center
12:18PM 34.0950 -82.1650 359° North 404 465 35,000  Level Atlanta Center
12:19PM 34.2058 -82.1675 359° North 404 465 35,000  Level Atlanta Center
12:20PM 34.3183 -82.1675 360° North 399 459 35,000  Level Atlanta Center
12:21PM 34.4308 -82.1550 North 399 459 35,000  Level Atlanta Center
12:22PM 34.5411 -82.1272 12° North 404 465 35,000  Level Atlanta Center
12:23PM 34.6617 -82.0967 12° North 404 465 35,000  Level Atlanta Center
12:24PM 34.7719 -82.0689 12° North 404 465 35,000  Level Atlanta Center
12:25PM 34.8800 -82.0411 12° North 404 465 35,000  Level Atlanta Center
12:26PM 34.9797 -82.0183 11° North 404 465 35,000  Level Atlanta Center
12:27PM 35.1022 -81.9850 13° North 404 465 35,000  Level Atlanta Center
12:28PM 35.2103 -81.9542 13° North 404 465 35,000  Level Atlanta Center
12:29PM 35.3203 -81.9236 13° North 410 472 35,000  Level Atlanta Center
12:30PM 35.4306 -81.8978 11° North 410 472 35,000  Level Atlanta Center
12:31PM 35.5431 -81.8972 360° North 405 466 35,000  Level Atlanta Center
12:32PM 35.6536 -81.8997 359° North 400 460 35,000  Level Atlanta Center
12:33PM 35.7644 -81.9044 358° North 405 466 35,000  Level Atlanta Center
12:34PM 35.8644 -81.9094 358° North 405 466 35,000  Level Atlanta Center
12:35PM 35.9753 -81.9142 358° North 400 460 35,000  Level Atlanta Center
12:36PM 36.0858 -81.9164 359° North 400 460 35,000  Level Atlanta Center
12:37PM 36.1964 -81.9211 358° North 405 466 35,000  Level Atlanta Center
12:38PM 36.3050 -81.9261 358° North 400 460 35,000  Level Atlanta Center
12:39PM 36.4156 -81.9308 358° North 394 453 35,000  Level Atlanta Center
12:40PM 36.5242 -81.9358 358° North 389 448 35,000  Level Atlanta Center
12:43PM 36.7975 -81.9483 358° North 401 461 35,000  Level Indianapolis Center
12:44PM 36.9244 -81.9553 357° North 394 453 35,000  Level Indianapolis Center
12:45PM 37.0297 -81.9872 346° North 391 450 35,000  Level Indianapolis Center
12:46PM 37.1339 -82.0217 345° North 388 447 35,000  Level Indianapolis Center
12:47PM 37.2375 -82.0558 345° North 385 443 35,000  Level Indianapolis Center
12:48PM 37.3436 -82.0789 350° North 388 447 35,000  Level Indianapolis Center
12:49PM 37.4531 -82.0786 360° North 392 451 35,000  Level Indianapolis Center
12:50PM 37.5797 -82.0811 359° North 390 449 35,000  Level Indianapolis Center
12:51PM 37.6858 -82.0825 359° North 384 442 35,000  Level Indianapolis Center
12:52PM 37.7950 -82.0844 359° North 389 448 35,000  Level Indianapolis Center
12:53PM 37.9067 -82.0861 359° North 386 444 35,000  Level Indianapolis Center
12:54PM 38.0153 -82.0872 360° North 387 445 35,000 -300 Level Indianapolis Center
12:55PM 38.1242 -82.0886 359° North 388 447 34,500 -540 Descending Indianapolis Center
12:56PM 38.2331 -82.0906 359° North 390 449 34,000 -300 Descending Indianapolis Center
12:57PM 38.3428 -82.0928 359° North 391 450 34,000  Level Indianapolis Center
12:58PM 38.4514 -82.0944 359° North 388 447 34,000  Level Indianapolis Center
12:59PM 38.5608 -82.0958 359° North 388 447 34,000  Level Indianapolis Center
01:00PM 38.6717 -82.0981 359° North 393 452 34,000  Level Indianapolis Center
01:01PM 38.7811 -82.1000 359° North 391 450 34,000  Level Indianapolis Center
01:02PM 38.9122 -82.1017 359° North 388 447 34,000  Level Indianapolis Center
01:03PM 39.0197 -82.1044 359° North 385 443 34,000 -660 Level Indianapolis Center
01:04PM 39.1272 -82.1056 360° North 384 442 32,700 -1,320 Descending Indianapolis Center
01:05PM 39.2336 -82.1072 359° North 382 440 31,300 -1,380 Descending Indianapolis Center
01:06PM 39.3422 -82.1083 360° North 386 444 29,900 -1,380 Descending Indianapolis Center
01:07PM 39.4519 -82.1106 359° North 393 452 28,500 -1,320 Descending Indianapolis Center
01:08PM 39.5608 -82.1108 360° North 390 449 27,200 -1,320 Descending Indianapolis Center
01:09PM 39.6647 -82.1136 359° North 375 432 25,800 -1,500 Descending Indianapolis Center
01:10PM 39.7783 -82.1158 359° North 361 415 24,200 -1,500 Descending Indianapolis Center
01:11PM 39.8786 -82.1164 360° North 359 413 22,800 -1,500 Descending Indianapolis Center
01:12PM 39.9786 -82.1178 359° North 356 410 21,200 -1,620 Descending Indianapolis Center
01:13PM 40.0728 -82.1031 North 340 391 19,500 -1,140 Descending Indianapolis Center
01:14PM 40.1656 -82.0858 North 336 387 18,900 -300 Descending Indianapolis Center
01:15PM 40.2697 -82.0689 North 339 390 19,000  Climbing Indianapolis Center
01:17PM 40.3850 -82.0494 North 338 389 19,000  Level Cleveland Center
01:18PM 40.4789 -82.0325 North 345 397 19,000 -900 Level Cleveland Center
01:19PM 40.5689 -82.0153 North 338 389 17,300 -1,800 Descending Cleveland Center
01:20PM 40.6492 -81.9378 36° Northeast 350 403 15,400 -1,920 Descending Cleveland Center
01:20PM 40.7081 -81.8814 36° Northeast 359 413 13,900 -1,920 Descending Cleveland Center
01:21PM 40.7861 -81.8033 37° Northeast 352 405 12,000 -1,860 Descending Cleveland Center
01:22PM 40.8619 -81.7281 37° Northeast 341 392 10,200 -1,020 Descending Cleveland Center
01:23PM 40.9439 -81.6469 37° Northeast 344 396 10,000 -120 Descending Cleveland Center
01:25PM 41.0458 -81.6733 349° North 294 338 10,000 -300 Level Cleveland Center
01:25PM 41.1058 -81.7156 332° Northwest 270 311 9,500 -960 Descending Cleveland Center
01:27PM 41.1831 -81.7253 355° North 277 319 8,100 -1,680 Descending Cleveland Center
01:28PM 41.2561 -81.7044 12° North 292 336 6,200 -1,860 Descending Cleveland Center
01:29PM 41.3461 -81.6672 17° North 291 335 4,400 -1,380 Descending Cleveland Center
01:30PM 41.4089 -81.6461 14° North 280 322 3,500 -720 Descending Cleveland Center
01:31PM 41.4733 -81.6750 341° North 219 252 3,100 -360 Descending Cleveland Center
01:32PM 41.4808 -81.7417 279° West 152 175 2,800 -300 Descending Cleveland Center